Time;durP1;ratioP1;P1;durP2;ratioP2;P2;SDS_P1;SDS_P2;PMS_P1;PMS_P2;Temp;Humidity;BMP_temperature;BMP_pressure;BME280_temperature;BME280_humidity;BME280_pressure;Samples;Min_cycle;Max_cycle;Signal;HPM_P1;HPM_P2
2022/01/05 00:01:59;;;;;;;13.43;2.20;;;1.90;99.90;;;;;;5054544;28;20384;-82
2022/01/05 00:04:43;;;;;;;13.93;2.90;;;2.70;99.90;;;;;;5055032;28;20094;-81
2022/01/05 00:07:27;;;;;;;;;;;2.50;99.90;;;;;;5056322;28;20040;-82
2022/01/05 00:10:12;;;;;;;9.27;1.95;;;1.90;99.90;;;;;;5038570;28;20046;-82
2022/01/05 00:12:56;;;;;;;9.80;2.77;;;2.50;99.90;;;;;;5039043;28;20091;-81
2022/01/05 00:15:40;;;;;;;;;;;1.90;99.90;;;;;;5055071;28;20504;-82
2022/01/05 00:18:24;;;;;;;14.65;3.03;;;1.90;99.90;;;;;;5039550;28;19963;-81
2022/01/05 00:21:08;;;;;;;9.88;1.83;;;1.90;99.90;;;;;;5039007;28;20472;-81
2022/01/05 00:23:52;;;;;;;;;;;2.10;99.90;;;;;;5040060;28;20084;-81
2022/01/05 00:26:36;;;;;;;11.82;1.95;;;2.60;99.90;;;;;;5039450;28;19928;-81
2022/01/05 00:29:20;;;;;;;14.02;1.98;;;2.00;99.90;;;;;;5038937;28;20062;-82
2022/01/05 00:32:05;;;;;;;12.03;2.10;;;2.00;99.90;;;;;;5038865;28;20085;-81
2022/01/05 00:34:49;;;;;;;9.87;2.03;;;2.10;99.90;;;;;;5025427;28;20052;-81
2022/01/05 00:37:33;;;;;;;13.43;2.80;;;2.50;99.90;;;;;;5039088;28;20107;-81
2022/01/05 00:40:18;;;;;;;7.20;1.63;;;2.20;99.90;;;;;;5053688;28;20496;-82
2022/01/05 00:43:02;;;;;;;11.70;2.70;;;2.70;99.90;;;;;;5053771;28;20559;-82
2022/01/05 00:45:46;;;;;;;;;;;2.90;99.90;;;;;;5054513;28;20492;-82
2022/01/05 00:48:32;;;;;;;11.15;1.75;;;2.30;99.90;;;;;;5054108;28;20399;-82
2022/01/05 00:51:17;;;;;;;12.13;2.40;;;2.30;99.90;;;;;;5071974;28;20146;-82
2022/01/05 00:54:01;;;;;;;9.80;2.23;;;2.60;99.90;;;;;;5073453;28;20047;-82
2022/01/05 00:56:45;;;;;;;9.02;1.83;;;3.00;99.90;;;;;;5073879;28;20043;-82
2022/01/05 00:59:29;;;;;;;;;;;2.60;99.90;;;;;;5045093;28;20043;-82
2022/01/05 01:02:13;;;;;;;6.75;2.05;;;2.70;99.90;;;;;;5058223;28;19977;-82
2022/01/05 01:04:57;;;;;;;;;;;2.60;99.90;;;;;;5073879;28;20094;-82
2022/01/05 01:07:41;;;;;;;15.77;2.30;;;2.80;99.90;;;;;;5073716;28;19915;-82
2022/01/05 01:10:26;;;;;;;12.93;2.13;;;2.80;99.90;;;;;;5073499;28;20400;-82
2022/01/05 01:13:10;;;;;;;8.35;2.42;;;2.70;99.90;;;;;;5051003;28;20412;-82
2022/01/05 01:15:54;;;;;;;10.33;1.97;;;2.80;99.90;;;;;;5073489;28;20059;-82
2022/01/05 01:18:38;;;;;;;9.35;2.13;;;2.80;99.90;;;;;;5073489;28;20094;-82
2022/01/05 01:21:22;;;;;;;5.20;1.37;;;2.70;99.90;;;;;;5057718;28;20448;-82
2022/01/05 01:24:06;;;;;;;15.23;2.47;;;3.00;99.90;;;;;;5057830;28;20051;-82
2022/01/05 01:26:50;;;;;;;;;;;3.00;99.90;;;;;;5058398;28;20408;-82
2022/01/05 01:29:35;;;;;;;13.55;2.45;;;2.60;99.90;;;;;;5073363;28;20403;-81
2022/01/05 01:32:19;;;;;;;;;;;3.50;99.90;;;;;;5058081;28;20044;-82
2022/01/05 01:35:04;;;;;;;9.27;2.10;;;2.70;99.90;;;;;;5073227;28;19923;-81
2022/01/05 01:37:49;;;;;;;12.10;2.03;;;2.50;99.90;;;;;;5073089;28;20039;-82
2022/01/05 01:40:33;;;;;;;7.60;1.87;;;2.50;99.90;;;;;;5073075;28;20108;-81
2022/01/05 01:43:17;;;;;;;15.13;2.03;;;2.50;99.90;;;;;;5072576;28;20055;-82
2022/01/05 01:46:03;;;;;;;12.83;2.27;;;2.60;99.90;;;;;;5043794;28;20043;-81
2022/01/05 01:48:47;;;;;;;12.53;2.20;;;2.40;99.90;;;;;;5057739;28;20036;-82
2022/01/05 01:51:32;;;;;;;;;;;3.40;99.90;;;;;;5052867;28;20040;-82
2022/01/05 01:54:16;;;;;;;15.52;1.92;;;2.60;99.90;;;;;;5052455;28;20422;-82
2022/01/05 01:57:02;;;;;;;12.47;2.67;;;2.80;99.90;;;;;;5052883;28;20129;-82
2022/01/05 01:59:47;;;;;;;11.53;2.30;;;2.40;99.90;;;;;;5052749;28;20040;-82
2022/01/05 02:02:32;;;;;;;14.53;3.00;;;2.40;99.90;;;;;;5052286;28;20409;-81
2022/01/05 02:05:17;;;;;;;14.90;2.80;;;3.40;99.90;;;;;;5052209;28;20043;-82
2022/01/05 02:08:02;;;;;;;10.23;2.50;;;2.40;99.90;;;;;;5052560;28;20056;-82
2022/01/05 02:10:49;;;;;;;11.23;2.13;;;2.70;99.90;;;;;;5038047;28;20182;-82
2022/01/05 02:13:34;;;;;;;9.60;1.73;;;2.30;99.90;;;;;;5052083;28;20087;-81
2022/01/05 02:16:20;;;;;;;8.10;2.50;;;3.00;99.90;;;;;;5052041;28;20116;-81
2022/01/05 02:19:04;;;;;;;11.33;2.50;;;2.30;99.90;;;;;;5052359;28;20113;-82
2022/01/05 02:21:48;;;;;;;;;;;2.30;99.90;;;;;;5053032;28;20040;-82
2022/01/05 02:24:32;;;;;;;8.85;2.53;;;2.30;99.90;;;;;;5052012;28;19923;-81
2022/01/05 02:27:17;;;;;;;13.30;2.10;;;2.30;99.90;;;;;;5051884;28;20122;-82
2022/01/05 02:30:01;;;;;;;10.37;2.37;;;2.30;99.90;;;;;;5037456;28;20047;-82
2022/01/05 02:32:47;;;;;;;24.17;3.80;;;2.30;99.90;;;;;;5053337;28;20040;-82
2022/01/05 02:35:31;;;;;;;15.50;2.50;;;2.30;99.90;;;;;;5056287;28;20044;-82
2022/01/05 02:38:20;;;;;;;17.42;2.53;;;2.30;99.90;;;;;;5056052;28;20039;-82
2022/01/05 02:41:09;;;;;;;9.87;1.97;;;2.50;99.90;;;;;;5041284;28;20102;-82
2022/01/05 02:43:54;;;;;;;22.60;2.80;;;3.10;99.90;;;;;;5041461;28;20048;-82
2022/01/05 02:46:38;;;;;;;;;;;2.90;99.90;;;;;;5041215;28;20079;-82
2022/01/05 02:49:22;;;;;;;19.55;4.00;;;2.30;99.90;;;;;;5040875;28;19915;-82
2022/01/05 02:52:06;;;;;;;;;;;2.30;99.90;;;;;;5056689;28;20114;-82
2022/01/05 02:54:50;;;;;;;18.27;3.17;;;2.30;99.90;;;;;;5041110;28;19935;-81
2022/01/05 02:57:35;;;;;;;13.93;2.72;;;2.40;99.90;;;;;;5040635;28;20086;-82
2022/01/05 03:00:19;;;;;;;12.83;2.97;;;3.10;99.90;;;;;;5055715;28;20040;-82
2022/01/05 03:03:04;;;;;;;11.30;2.13;;;2.50;99.90;;;;;;5056140;28;20102;-82
2022/01/05 03:05:48;;;;;;;14.70;2.67;;;2.50;99.90;;;;;;5027141;28;20083;-82
2022/01/05 03:08:33;;;;;;;17.23;2.83;;;2.50;99.90;;;;;;5026375;28;20040;-81
2022/01/05 03:11:16;;;;;;;19.63;3.27;;;2.60;99.90;;;;;;5040957;28;20131;-82
2022/01/05 03:14:01;;;;;;;11.40;2.03;;;2.70;99.90;;;;;;5013056;28;20505;-82
2022/01/05 03:16:45;;;;;;;13.30;2.20;;;2.80;99.90;;;;;;5040743;28;20496;-82
2022/01/05 03:19:30;;;;;;;14.17;2.77;;;3.50;99.90;;;;;;5054297;28;20542;-82
2022/01/05 03:22:14;;;;;;;;;;;3.10;99.90;;;;;;5055008;28;20060;-82
2022/01/05 03:24:58;;;;;;;9.45;2.22;;;2.80;99.90;;;;;;5055662;28;20328;-82
2022/01/05 03:27:43;;;;;;;;;;;3.70;99.90;;;;;;5055459;28;20084;-82
2022/01/05 03:30:30;;;;;;;19.07;3.40;;;2.80;99.90;;;;;;5054198;28;20005;-82
2022/01/05 03:33:20;;;;;;;15.50;2.73;;;2.90;99.90;;;;;;5055555;28;20492;-82
2022/01/05 03:36:04;;;;;;;15.00;2.70;;;3.20;99.90;;;;;;5054407;28;20102;-81
2022/01/05 03:38:49;;;;;;;15.87;2.43;;;2.90;99.90;;;;;;5055402;28;20121;-81
2022/01/05 03:41:33;;;;;;;15.33;2.53;;;3.00;99.90;;;;;;5054030;28;20102;-82
2022/01/05 03:44:17;;;;;;;13.80;2.40;;;3.10;99.90;;;;;;5054257;28;20099;-81
2022/01/05 03:47:02;;;;;;;13.47;2.40;;;3.80;99.90;;;;;;5056088;28;20060;-82
2022/01/05 03:49:47;;;;;;;17.90;2.60;;;3.10;99.90;;;;;;5074750;28;20044;-82
2022/01/05 03:52:31;;;;;;;;;;;3.10;99.90;;;;;;5045818;28;20404;-81
2022/01/05 03:55:15;;;;;;;14.27;3.40;;;3.50;99.90;;;;;;5075112;28;19951;-82
2022/01/05 03:58:00;;;;;;;14.40;2.70;;;3.20;99.90;;;;;;5075089;28;20587;-82
2022/01/05 04:00:51;;;;;;;14.47;2.13;;;3.90;99.90;;;;;;5074559;28;20405;-82
2022/01/05 04:03:35;;;;;;;16.20;4.00;;;3.30;99.90;;;;;;5074546;28;20113;-82
2022/01/05 04:06:19;;;;;;;11.20;3.20;;;3.30;99.90;;;;;;5059758;28;20411;-82
2022/01/05 04:09:03;;;;;;;;;;;3.80;99.90;;;;;;5060086;28;20502;-82
2022/01/05 04:11:47;;;;;;;14.90;2.42;;;3.30;99.90;;;;;;5074371;28;19965;-82
2022/01/05 04:14:31;;;;;;;;;;;4.20;99.90;;;;;;5059509;28;20048;-82
2022/01/05 04:17:15;;;;;;;15.95;2.30;;;3.30;99.90;;;;;;5074112;28;20011;-81
2022/01/05 04:19:59;;;;;;;19.00;2.80;;;4.60;99.90;;;;;;5059481;28;20055;-82
2022/01/05 04:22:43;;;;;;;;;;;3.40;99.90;;;;;;5059408;28;20453;-81
2022/01/05 04:25:28;;;;;;;12.25;2.33;;;3.50;99.90;;;;;;5074512;28;19919;-82
2022/01/05 04:28:12;;;;;;;;;;;4.20;99.90;;;;;;5059895;28;20043;-82
2022/01/05 04:30:56;;;;;;;15.02;2.85;;;3.50;99.90;;;;;;5074686;28;19919;-82
2022/01/05 04:33:40;;;;;;;;;;;3.60;99.90;;;;;;5074355;28;20077;-82
2022/01/05 04:36:25;;;;;;;13.18;3.70;;;3.60;99.90;;;;;;5046088;28;19935;-82
2022/01/05 04:39:10;;;;;;;15.40;4.43;;;3.70;99.90;;;;;;5054223;28;20063;-82
2022/01/05 04:41:54;;;;;;;14.70;2.20;;;3.90;99.90;;;;;;5038781;28;20076;-82
2022/01/05 04:44:38;;;;;;;12.70;2.37;;;3.70;99.90;;;;;;5038586;28;20103;-82
2022/01/05 04:47:22;;;;;;;;;;;3.70;99.90;;;;;;5058980;28;20035;-82
2022/01/05 04:50:07;;;;;;;11.13;1.77;;;3.60;99.90;;;;;;5074211;28;19983;-82
2022/01/05 04:52:52;;;;;;;9.67;2.40;;;3.60;99.90;;;;;;5058343;28;20047;-82
2022/01/05 04:55:36;;;;;;;;;;;3.70;99.90;;;;;;5073964;28;20048;-82
2022/01/05 04:58:20;;;;;;;8.88;1.80;;;3.60;99.90;;;;;;5073206;28;19965;-82
2022/01/05 05:01:04;;;;;;;14.07;2.47;;;3.70;99.90;;;;;;5073822;28;20044;-82
2022/01/05 05:03:49;;;;;;;16.40;2.90;;;4.10;99.90;;;;;;5073372;28;20052;-82
2022/01/05 05:06:33;;;;;;;11.73;2.33;;;3.70;99.90;;;;;;5073713;28;20098;-82
2022/01/05 05:09:17;;;;;;;14.38;2.40;;;3.60;99.90;;;;;;5073430;28;20407;-82
2022/01/05 05:12:02;;;;;;;12.23;2.57;;;3.60;99.90;;;;;;5073608;28;20093;-82
2022/01/05 05:14:46;;;;;;;15.13;2.33;;;3.60;99.90;;;;;;5073084;28;20048;-82
2022/01/05 05:17:31;;;;;;;18.83;3.37;;;3.60;99.90;;;;;;5036464;28;20392;-82
2022/01/05 05:20:15;;;;;;;10.77;2.30;;;3.60;99.90;;;;;;5053539;28;20043;-82
2022/01/05 05:23:00;;;;;;;12.67;2.00;;;4.40;99.90;;;;;;5053054;28;20213;-82
2022/01/05 05:25:45;;;;;;;11.63;2.77;;;4.10;99.90;;;;;;5037877;28;20043;-82
2022/01/05 05:28:29;;;;;;;14.77;2.83;;;3.60;99.90;;;;;;5053296;28;20122;-82
2022/01/05 05:31:13;;;;;;;;;;;3.60;99.90;;;;;;5053751;28;20118;-82
2022/01/05 05:33:57;;;;;;;11.15;3.05;;;4.50;99.90;;;;;;5023644;28;19927;-82
2022/01/05 05:36:41;;;;;;;22.57;3.27;;;3.60;99.90;;;;;;5052792;28;20044;-83
2022/01/05 05:39:25;;;;;;;16.60;2.73;;;3.60;99.90;;;;;;5053272;28;20075;-82
2022/01/05 05:42:10;;;;;;;;;;;3.80;99.90;;;;;;5038331;28;20068;-82
2022/01/05 05:44:54;;;;;;;;;;;3.70;99.90;;;;;;5053077;28;19915;-82
2022/01/05 05:47:38;;;;;;;21.95;5.30;;;3.90;99.90;;;;;;5059517;28;19935;-82
2022/01/05 05:50:22;;;;;;;;;;;3.90;99.90;;;;;;5058158;28;20040;-82
2022/01/05 05:53:06;;;;;;;19.52;3.15;;;3.80;99.90;;;;;;5072404;28;19972;-82
2022/01/05 05:55:50;;;;;;;16.27;3.03;;;3.80;99.90;;;;;;5057232;28;20583;-82
2022/01/05 05:58:34;;;;;;;;;;;4.40;99.90;;;;;;5073250;28;20118;-82
2022/01/05 06:01:19;;;;;;;19.38;2.63;;;3.90;99.90;;;;;;5072858;28;19958;-81
2022/01/05 06:04:03;;;;;;;;;;;4.00;99.90;;;;;;5057464;28;20556;-82
2022/01/05 06:06:47;;;;;;;14.52;2.63;;;3.90;99.90;;;;;;5057057;28;19924;-83
2022/01/05 06:09:31;;;;;;;;;;;4.20;99.90;;;;;;5057918;28;20047;-82
2022/01/05 06:12:16;;;;;;;17.20;3.67;;;3.90;99.90;;;;;;5057502;28;20008;-83
2022/01/05 06:15:00;;;;;;;13.03;3.57;;;4.00;99.90;;;;;;5057032;28;20044;-83
2022/01/05 06:17:45;;;;;;;13.90;2.77;;;3.90;99.90;;;;;;5047925;28;20085;-83
2022/01/05 06:20:29;;;;;;;10.73;2.10;;;3.90;99.90;;;;;;5037234;28;20102;-83
2022/01/05 06:23:13;;;;;;;;;;;3.90;99.90;;;;;;5052953;28;20405;-83
2022/01/05 06:25:57;;;;;;;8.55;2.03;;;4.20;99.90;;;;;;5037215;28;19967;-83
2022/01/05 06:28:41;;;;;;;;;;;4.10;99.90;;;;;;5040964;28;20059;-83
2022/01/05 06:31:25;;;;;;;14.07;2.40;;;3.80;99.90;;;;;;5057286;28;20013;-83
2022/01/05 06:34:10;;;;;;;14.53;2.70;;;3.90;99.90;;;;;;5056759;28;20145;-83
2022/01/05 06:36:54;;;;;;;17.23;2.50;;;3.80;99.90;;;;;;5071950;28;20040;-83
2022/01/05 06:39:38;;;;;;;14.00;2.08;;;4.20;99.90;;;;;;5057209;28;20078;-82
2022/01/05 06:42:22;;;;;;;11.33;3.67;;;4.50;99.90;;;;;;5072173;28;20067;-82
2022/01/05 06:45:07;;;;;;;16.73;3.17;;;3.90;99.90;;;;;;5071201;28;20043;-82
2022/01/05 06:47:51;;;;;;;7.67;2.73;;;3.90;99.90;;;;;;5041809;28;20400;-83
2022/01/05 06:50:35;;;;;;;16.47;2.27;;;4.10;99.90;;;;;;5049464;28;20094;-83
2022/01/05 06:53:19;;;;;;;12.07;2.30;;;3.90;99.90;;;;;;5039657;28;20170;-83
2022/01/05 06:56:04;;;;;;;12.40;3.05;;;4.10;99.90;;;;;;5071265;28;20409;-83
2022/01/05 06:58:48;;;;;;;12.73;2.90;;;3.90;99.90;;;;;;5042774;28;20120;-83
2022/01/05 07:01:32;;;;;;;15.48;2.97;;;3.90;99.90;;;;;;5071542;28;20040;-82
2022/01/05 07:04:17;;;;;;;10.30;2.50;;;3.90;99.90;;;;;;5070572;28;20544;-83
2022/01/05 07:07:02;;;;;;;9.00;1.93;;;3.90;99.90;;;;;;5070705;28;20039;-83
2022/01/05 07:09:46;;;;;;;9.10;1.90;;;3.90;99.90;;;;;;5039912;28;20054;-82
2022/01/05 07:12:30;;;;;;;;;;;4.00;99.90;;;;;;5071624;28;20616;-82
2022/01/05 07:15:15;;;;;;;8.95;1.30;;;4.00;99.90;;;;;;5046560;28;19932;-82
2022/01/05 07:17:59;;;;;;;13.83;2.80;;;4.60;99.90;;;;;;5044687;28;20135;-82
2022/01/05 07:20:45;;;;;;;6.43;1.50;;;4.00;99.90;;;;;;5043759;28;20397;-82
2022/01/05 07:23:29;;;;;;;8.40;1.60;;;4.00;99.90;;;;;;5074997;28;20039;-83
2022/01/05 07:26:14;;;;;;;6.00;1.63;;;4.00;99.90;;;;;;5074346;28;20082;-82
2022/01/05 07:28:58;;;;;;;11.57;1.57;;;4.10;99.90;;;;;;5074643;28;20506;-83
2022/01/05 07:31:42;;;;;;;;;;;4.00;99.90;;;;;;5046088;28;20127;-83
2022/01/05 07:34:27;;;;;;;6.53;1.30;;;4.10;99.90;;;;;;5059690;28;19923;-83
2022/01/05 07:37:11;;;;;;;6.00;1.60;;;4.20;99.90;;;;;;5071135;28;20082;-83
2022/01/05 07:39:56;;;;;;;13.63;2.60;;;4.10;99.90;;;;;;5073388;28;20035;-83
2022/01/05 07:42:40;;;;;;;8.87;1.70;;;4.00;99.90;;;;;;5059535;28;20515;-83
2022/01/05 07:45:25;;;;;;;10.73;2.23;;;4.50;99.90;;;;;;5059506;28;20051;-83
2022/01/05 07:48:09;;;;;;;;;;;4.00;99.90;;;;;;5059536;28;20039;-83
2022/01/05 07:50:54;;;;;;;8.93;1.60;;;4.80;99.90;;;;;;5074661;28;19915;-83
2022/01/05 07:53:38;;;;;;;14.03;1.90;;;4.10;99.90;;;;;;5044416;28;20043;-83
2022/01/05 07:56:22;;;;;;;;;;;4.20;99.90;;;;;;5058341;28;20405;-83
2022/01/05 07:59:06;;;;;;;13.75;2.63;;;5.10;99.90;;;;;;5073362;28;19934;-83
2022/01/05 08:01:51;;;;;;;7.40;1.50;;;5.40;99.90;;;;;;5058415;28;20047;-84
2022/01/05 08:04:35;;;;;;;11.33;2.20;;;4.30;99.90;;;;;;5059556;28;20451;-84
2022/01/05 08:07:20;;;;;;;10.90;1.80;;;4.60;99.90;;;;;;5044820;28;20040;-84
2022/01/05 08:10:04;;;;;;;;;;;5.10;99.90;;;;;;5039458;28;20040;-84
2022/01/05 08:12:48;;;;;;;9.52;2.90;;;4.50;99.90;;;;;;5025651;28;19920;-83
2022/01/05 08:15:33;;;;;;;8.10;1.80;;;4.60;99.90;;;;;;5039659;28;20063;-84
2022/01/05 08:18:18;;;;;;;11.13;1.67;;;4.70;99.90;;;;;;5039216;28;20500;-83
2022/01/05 08:21:03;;;;;;;8.37;1.80;;;5.10;99.90;;;;;;5055674;28;20087;-84
2022/01/05 08:23:47;;;;;;;6.63;1.30;;;4.90;99.90;;;;;;5039546;28;20056;-83
2022/01/05 08:26:31;;;;;;;;;;;4.70;99.90;;;;;;5052411;28;20582;-83
2022/01/05 08:29:15;;;;;;;8.15;1.55;;;5.10;99.90;;;;;;5073665;28;20318;-83
2022/01/05 08:32:02;;;;;;;;;;;4.80;99.90;;;;;;5073682;28;20042;-83
2022/01/05 08:34:46;;;;;;;9.07;1.87;;;5.60;99.90;;;;;;5074499;28;19934;-83
2022/01/05 08:37:30;;;;;;;;;;;4.80;99.90;;;;;;5073849;28;20048;-83
2022/01/05 08:40:16;;;;;;;11.98;1.95;;;4.80;99.90;;;;;;5073834;28;19970;-82
2022/01/05 08:43:03;;;;;;;12.23;2.40;;;5.00;99.90;;;;;;5074351;28;20519;-83
2022/01/05 08:45:49;;;;;;;9.53;3.23;;;4.90;99.90;;;;;;5059146;28;20039;-83
2022/01/05 08:48:33;;;;;;;12.15;2.00;;;5.00;99.90;;;;;;5074115;28;20039;-83
2022/01/05 08:51:17;;;;;;;;;;;5.10;99.90;;;;;;5073942;28;20109;-83
2022/01/05 08:54:02;;;;;;;10.70;2.35;;;5.00;99.90;;;;;;5074094;28;19978;-83
2022/01/05 08:56:46;;;;;;;4.95;1.48;;;5.10;99.90;;;;;;5044933;28;20082;-83
2022/01/05 08:59:32;;;;;;;9.73;2.23;;;5.10;99.90;;;;;;5044392;28;20618;-83
2022/01/05 09:02:16;;;;;;;13.03;3.03;;;5.80;99.90;;;;;;5058264;28;20123;-83
2022/01/05 09:05:00;;;;;;;;;;;5.20;99.90;;;;;;5074104;28;20051;-83
2022/01/05 09:07:45;;;;;;;7.40;1.50;;;5.30;99.90;;;;;;5062352;28;20278;-83
2022/01/05 09:10:29;;;;;;;10.00;1.83;;;5.30;99.90;;;;;;5038184;28;20040;-83
2022/01/05 09:13:14;;;;;;;;;;;5.40;99.90;;;;;;5024413;28;20091;-83
2022/01/05 09:15:58;;;;;;;10.68;2.00;;;5.50;99.90;;;;;;5067235;28;19916;-83
2022/01/05 09:18:42;;;;;;;;;;;5.50;99.90;;;;;;5058785;28;20044;-82
2022/01/05 09:21:27;;;;;;;13.15;2.30;;;5.50;99.90;;;;;;5073120;28;19957;-83
2022/01/05 09:24:11;;;;;;;;;;;5.40;99.90;;;;;;5073956;28;20452;-83
2022/01/05 09:26:57;;;;;;;10.70;2.53;;;5.40;99.90;;;;;;5073266;28;19966;-83
2022/01/05 09:29:41;;;;;;;10.38;1.88;;;5.40;99.90;;;;;;5069405;28;20492;-83
2022/01/05 09:32:26;;;;;;;12.32;1.90;;;5.40;99.90;;;;;;5067286;28;20040;-82
2022/01/05 09:35:14;;;;;;;8.75;2.20;;;5.40;99.90;;;;;;5072159;28;20093;-82
2022/01/05 09:43:56;;;;;;;9.80;1.80;;;5.40;99.90;;;;;;5072588;28;20119;-82
2022/01/05 09:46:44;;;;;;;10.63;2.20;;;5.90;99.90;;;;;;5057491;28;20078;-83
2022/01/05 09:49:34;;;;;;;14.02;2.25;;;5.50;99.90;;;;;;5057410;28;20047;-82
2022/01/05 09:52:21;;;;;;;12.23;2.35;;;5.60;99.90;;;;;;5072117;28;20040;-82
2022/01/05 09:55:07;;;;;;;16.27;2.75;;;5.80;99.90;;;;;;5057826;28;20047;-82
2022/01/05 09:57:52;;;;;;;13.07;2.20;;;5.70;99.90;;;;;;5057948;28;20098;-83
2022/01/05 10:00:36;;;;;;;16.23;2.65;;;5.80;99.90;;;;;;5057199;28;20035;-82
2022/01/05 10:03:21;;;;;;;;;;;6.00;99.90;;;;;;5072637;28;20050;-82
2022/01/05 10:06:05;;;;;;;21.70;3.47;;;7.00;99.90;;;;;;5072677;28;19920;-83
2022/01/05 10:08:49;;;;;;;;;;;6.00;99.90;;;;;;5073211;28;20039;-82
2022/01/05 10:11:34;;;;;;;21.77;4.65;;;6.40;99.90;;;;;;5057164;28;20003;-82
2022/01/05 10:14:19;;;;;;;16.85;3.15;;;6.30;99.90;;;;;;5069098;28;20055;-82
2022/01/05 10:17:13;;;;;;;20.60;3.50;;;6.00;99.90;;;;;;5052674;28;20103;-83
2022/01/05 10:20:00;;;;;;;13.95;3.22;;;6.10;99.90;;;;;;5052526;28;20072;-82
2022/01/05 10:22:45;;;;;;;26.38;4.57;;;6.20;99.90;;;;;;5052089;28;20408;-82
2022/01/05 10:25:29;;;;;;;22.48;4.75;;;6.20;99.90;;;;;;5037261;28;20389;-83
2022/01/05 10:28:25;;;;;;;22.35;3.83;;;6.20;99.90;;;;;;5037309;28;20060;-83
2022/01/05 10:31:17;;;;;;;27.83;4.25;;;6.50;99.90;;;;;;5052526;28;20094;-83
2022/01/05 10:34:20;;;;;;;15.55;3.17;;;6.40;99.90;;;;;;5056611;28;20090;-83
2022/01/05 10:37:06;;;;;;;12.70;2.42;;;6.50;99.90;;;;;;5057243;28;20035;-83
2022/01/05 10:40:07;;;;;;;25.40;4.68;;;6.50;99.90;;;;;;5038965;28;20071;-83
2022/01/05 10:42:54;;;;;;;18.23;4.22;;;6.60;99.90;;;;;;5052373;28;20032;-83
2022/01/05 10:45:47;;;;;;;12.63;3.03;;;6.70;99.90;;;;;;5051800;28;20134;-82
2022/01/05 10:48:39;;;;;;;24.23;3.38;;;6.70;99.90;;;;;;5036729;28;20044;-83
2022/01/05 10:51:29;;;;;;;17.40;2.67;;;6.80;99.90;;;;;;5052316;28;20086;-82
2022/01/05 10:54:15;;;;;;;23.35;3.92;;;6.80;99.90;;;;;;5068728;28;20048;-83
2022/01/05 10:57:08;;;;;;;18.33;3.08;;;6.80;99.90;;;;;;5075838;28;20094;-83
2022/01/05 10:59:54;;;;;;;21.17;3.35;;;6.90;99.90;;;;;;5060592;28;20447;-82
2022/01/05 11:02:39;;;;;;;12.45;3.33;;;7.50;99.90;;;;;;5067647;28;20039;-82
2022/01/05 11:05:23;;;;;;;25.88;8.82;;;6.90;99.90;;;;;;5041012;28;20130;-82
2022/01/05 11:08:08;;;;;;;;;;;6.90;99.90;;;;;;5056486;28;20086;-82
2022/01/05 11:10:52;;;;;;;12.57;3.38;;;6.90;99.90;;;;;;5040575;28;19966;-83
2022/01/05 11:13:51;;;;;;;;;;;7.00;99.90;;;;;;5040752;28;20110;-82
2022/01/05 11:16:40;;;;;;;25.35;3.40;;;7.00;99.90;;;;;;5055447;28;19931;-82
2022/01/05 11:19:27;;;;;;;16.75;3.45;;;7.00;99.90;;;;;;5055854;28;20040;-83
2022/01/05 11:22:14;;;;;;;19.63;3.58;;;7.00;99.90;;;;;;5055775;28;20584;-82
2022/01/05 11:24:59;;;;;;;11.93;2.53;;;7.20;99.90;;;;;;5055661;28;20044;-82
2022/01/05 11:27:43;;;;;;;19.48;3.53;;;7.30;99.90;;;;;;5055081;28;20452;-82
2022/01/05 11:30:28;;;;;;;19.00;3.88;;;7.30;99.90;;;;;;5040545;28;20043;-82
2022/01/05 11:33:13;;;;;;;16.35;3.17;;;7.30;99.90;;;;;;5068683;28;20558;-82
2022/01/05 11:35:58;;;;;;;17.77;3.00;;;7.30;99.90;;;;;;5060382;28;20043;-82
2022/01/05 11:38:43;;;;;;;25.38;3.17;;;7.30;99.90;;;;;;5075038;28;20055;-82
2022/01/05 11:41:28;;;;;;;15.93;3.72;;;7.30;99.90;;;;;;5046245;28;20094;-82
2022/01/05 11:44:14;;;;;;;20.73;3.25;;;7.20;99.90;;;;;;5060238;28;20074;-82
2022/01/05 11:47:17;;;;;;;18.35;3.22;;;7.30;99.90;;;;;;5046320;28;20042;-82
2022/01/05 11:50:14;;;;;;;13.13;3.47;;;7.30;99.90;;;;;;5060071;28;20082;-82
2022/01/05 11:53:00;;;;;;;16.88;2.70;;;7.30;99.90;;;;;;5074953;28;20261;-86
2022/01/05 11:56:01;;;;;;;27.58;3.78;;;7.40;99.90;;;;;;5072993;28;20044;-83
2022/01/05 11:58:56;;;;;;;22.58;4.30;;;7.80;99.90;;;;;;5059451;28;20120;-82
2022/01/05 12:01:41;;;;;;;18.15;3.45;;;7.50;99.90;;;;;;5074213;28;20036;-82
2022/01/05 12:04:26;;;;;;;14.85;3.05;;;7.70;99.90;;;;;;5074856;28;20039;-83
2022/01/05 12:07:10;;;;;;;19.02;2.70;;;7.80;99.90;;;;;;5039838;28;20449;-83
2022/01/05 12:09:54;;;;;;;14.27;3.03;;;7.60;99.90;;;;;;5039272;28;20067;-82
2022/01/05 12:12:58;;;;;;;;;;;7.50;99.90;;;;;;5054653;28;20040;-82
2022/01/05 12:15:44;;;;;;;15.35;2.53;;;7.40;99.90;;;;;;5054159;28;19924;-82
2022/01/05 12:18:30;;;;;;;14.65;2.53;;;7.40;99.90;;;;;;5055766;28;20043;-82
2022/01/05 12:21:40;;;;;;;13.00;2.53;;;7.30;99.90;;;;;;5054709;28;20040;-83
2022/01/05 12:24:53;;;;;;;14.75;2.42;;;7.30;99.90;;;;;;5039477;28;20396;-82
2022/01/05 12:27:48;;;;;;;12.93;2.75;;;7.30;99.90;;;;;;5038648;28;20099;-82
2022/01/05 12:30:36;;;;;;;13.40;3.03;;;7.30;99.90;;;;;;5058212;28;20039;-82
2022/01/05 12:33:20;;;;;;;22.05;3.22;;;7.30;99.90;;;;;;5059362;28;20048;-82
2022/01/05 12:36:05;;;;;;;20.30;3.88;;;7.40;99.90;;;;;;5039254;28;20425;-82
2022/01/05 12:38:54;;;;;;;13.57;2.60;;;7.40;99.90;;;;;;5038716;28;20122;-82
2022/01/05 12:41:40;;;;;;;17.88;3.85;;;7.40;99.90;;;;;;5054241;28;20040;-82
2022/01/05 12:44:26;;;;;;;17.60;2.72;;;7.50;99.90;;;;;;5039072;28;20083;-82
2022/01/05 12:47:12;;;;;;;20.25;3.22;;;7.50;99.90;;;;;;5039043;28;20064;-81
2022/01/05 12:50:15;;;;;;;14.50;2.88;;;7.50;99.90;;;;;;5070503;28;20040;-80
2022/01/05 12:53:00;;;;;;;17.98;3.97;;;7.60;99.90;;;;;;5073530;28;20086;-80
2022/01/05 12:55:45;;;;;;;;;;;7.60;99.90;;;;;;5073654;28;20049;-81
2022/01/05 12:58:34;;;;;;;14.82;2.72;;;7.60;99.90;;;;;;5074022;28;19915;-81
2022/01/05 13:01:19;;;;;;;24.55;4.60;;;7.90;99.90;;;;;;5063800;28;20090;-81
2022/01/05 13:04:11;;;;;;;23.95;4.40;;;7.70;99.90;;;;;;5056057;28;20555;-81
2022/01/05 13:06:59;;;;;;;20.27;4.40;;;7.80;99.90;;;;;;5072278;28;20553;-80
2022/01/05 13:09:46;;;;;;;23.50;4.25;;;7.70;99.90;;;;;;5073681;28;20090;-80
2022/01/05 13:12:31;;;;;;;20.58;5.03;;;7.60;99.90;;;;;;5073602;28;20036;-80
2022/01/05 13:15:17;;;;;;;15.80;4.00;;;7.50;99.90;;;;;;5070961;28;20047;-80
2022/01/05 13:18:02;;;;;;;22.17;3.35;;;7.50;99.90;;;;;;5057359;28;20082;-80
2022/01/05 13:20:56;;;;;;;17.10;3.85;;;7.40;99.90;;;;;;5057901;28;20444;-80
2022/01/05 13:23:54;;;;;;;27.08;4.93;;;7.30;99.90;;;;;;5068981;28;20408;-80
2022/01/05 13:26:58;;;;;;;20.27;3.97;;;7.30;99.90;;;;;;5064031;28;20124;-83
2022/01/05 13:29:43;;;;;;;21.67;3.55;;;7.20;99.90;;;;;;5033421;28;20053;-83
2022/01/05 13:32:29;;;;;;;20.25;3.13;;;7.30;99.90;;;;;;5032368;28;20422;-83
2022/01/05 13:35:19;;;;;;;22.63;3.60;;;7.20;99.90;;;;;;5033355;28;20080;-83
2022/01/05 13:38:06;;;;;;;12.07;3.17;;;7.20;99.90;;;;;;5031601;28;20044;-83
2022/01/05 13:40:53;;;;;;;20.60;3.33;;;7.20;99.90;;;;;;5032730;28;20083;-83
2022/01/05 13:43:37;;;;;;;20.70;3.60;;;7.30;99.90;;;;;;5033026;28;20100;-83
2022/01/05 13:46:22;;;;;;;19.45;3.40;;;7.30;99.90;;;;;;5033054;28;20057;-83
2022/01/05 13:49:15;;;;;;;24.08;3.08;;;7.30;99.90;;;;;;5017714;28;20496;-83
2022/01/05 13:52:05;;;;;;;22.55;5.63;;;7.30;99.90;;;;;;5030538;28;20108;-80
2022/01/05 13:54:50;;;;;;;28.60;3.85;;;7.30;99.90;;;;;;5017556;28;20111;-81
2022/01/05 13:57:35;;;;;;;;;;;7.30;99.90;;;;;;5013692;28;20044;-81
2022/01/05 14:00:19;;;;;;;12.73;3.15;;;7.20;99.90;;;;;;5013275;28;20429;-81
2022/01/05 14:03:06;;;;;;;12.88;2.38;;;7.20;99.90;;;;;;5012711;28;20125;-81
2022/01/05 14:05:51;;;;;;;14.20;2.67;;;7.20;99.90;;;;;;5029370;28;20080;-81
2022/01/05 14:08:43;;;;;;;15.50;2.30;;;7.10;99.90;;;;;;5015196;28;20073;-81
2022/01/05 14:11:32;;;;;;;14.02;3.17;;;7.00;99.90;;;;;;5012186;28;20461;-80
2022/01/05 14:14:16;;;;;;;10.07;2.40;;;6.90;99.90;;;;;;5012522;28;20036;-81
2022/01/05 14:17:11;;;;;;;10.35;3.05;;;6.80;99.90;;;;;;5029839;28;20079;-81
2022/01/05 14:20:20;;;;;;;16.42;2.30;;;6.70;99.90;;;;;;5032218;28;20032;-81
2022/01/05 14:23:10;;;;;;;13.80;2.83;;;6.60;99.90;;;;;;5012168;28;20068;-81
2022/01/05 14:26:00;;;;;;;10.93;2.35;;;6.90;99.90;;;;;;5012505;28;20113;-80
2022/01/05 14:28:45;;;;;;;19.38;3.05;;;6.50;99.90;;;;;;5026079;28;20080;-81
2022/01/05 14:31:37;;;;;;;10.25;2.03;;;6.40;99.90;;;;;;5031937;28;20056;-80
2022/01/05 14:34:26;;;;;;;14.27;3.22;;;6.30;99.90;;;;;;5031422;28;20063;-81
2022/01/05 14:37:11;;;;;;;17.02;2.58;;;6.40;99.90;;;;;;5036458;28;20044;-81
2022/01/05 14:39:57;;;;;;;12.75;2.60;;;6.30;99.90;;;;;;5037338;28;20040;-81
2022/01/05 14:42:53;;;;;;;17.70;3.00;;;6.30;99.90;;;;;;5052381;28;20499;-81
2022/01/05 14:45:39;;;;;;;10.85;2.38;;;6.40;99.90;;;;;;5051214;28;20084;-81
2022/01/05 14:48:23;;;;;;;15.13;2.88;;;6.40;99.90;;;;;;5037351;28;20463;-81